This is the latest recevied weather packets stored in our database for station/object HI6LT. If no packets are shown the sender has not sent any weather packets the latest 10 day(s).
| Time | Temp. | Humidity | Pressure | Rain* | Wind** | Luminosity | Snow |
|---|---|---|---|---|---|---|---|
| 1777479478 | 20.56° C | 84% | 1034.7 hPa | 0 mm | - | - | - |
| 1777479098 | 20° C | 87% | 1034.4 hPa | 0 mm | - | - | - |
| 1777478814 | 17.78° C | 91% | 1035.1 hPa | 0 mm | - | - | - |
| 1777477305 | 19.44° C | 86% | 1034.8 hPa | 0 mm | - | - | - |
| 1777476775 | 18.89° C | 87% | 1034.8 hPa | 0 mm | - | - | - |
| 1777475503 | 19.44° C | 85% | 1034.8 hPa | 0 mm | - | - | - |
| 1777474072 | 18.89° C | 87% | 1035 hPa | 0 mm | - | - | - |
| 1777473702 | 19.44° C | 85% | 1034.9 hPa | 0 mm | - | - | - |
| 1777473313 | 17.22° C | 92% | 1034.9 hPa | 0 mm | - | - | - |
| 1777471901 | 17.78° C | 91% | 1035.1 hPa | 0 mm | - | - | - |
| 1777471586 | 17.22° C | 90% | 1034.8 hPa | 0 mm | - | - | - |
| 1777471379 | 17.78° C | 90% | 1035 hPa | 0 mm | - | - | - |
| 1777470098 | 17.22° C | 92% | 1034.9 hPa | 0 mm | - | - | - |
| 1777468678 | 17.22° C | 91% | 1035 hPa | 0 mm | - | - | - |
| 1777468298 | 17.22° C | 90% | 1034.8 hPa | 0 mm | - | - | - |
| 1777467475 | 15.56° C | 91% | 1034.2 hPa | 0 mm | - | - | - |
| 1777466985 | 15° C | 92% | 1033.9 hPa | 0 mm | - | - | - |
| 1777466506 | 16.11° C | 91% | 1034.3 hPa | 0 mm | - | - | - |
| 1777465976 | 15.56° C | 93% | 1034.2 hPa | 0 mm | - | - | - |
| 1777465441 | 15° C | 91% | 1033.9 hPa | 0 mm | - | - | - |
| 1777464705 | 15.56° C | 91% | 1034.2 hPa | 0 mm | - | - | - |
| 1777463273 | 15° C | 92% | 1033.9 hPa | 0 mm | - | - | - |
| 1777462903 | 15° C | 92% | 1033.9 hPa | 0 mm | - | - | - |
| 1777461984 | 15° C | 92% | 1033.7 hPa | 0 mm | - | - | - |
| 1777461102 | 15° C | 91% | 1033.9 hPa | 0 mm | - | - | - |
* Rain latest hour (hover to see other rain measurements)
** Current wind speed in m/s (hover to see current wind gust speed)